Radium Springs, New Mexico
Current Conditions -  °F | °C
As of 7:15 AM on Tuesday 27 Jan 2015 (Local Time) from KLRU Reporting Station
Broken Clouds Broken Clouds  
Wind Chill: 43°   Ceiling: 9000
Heat Index: 43°   Visibility: 10mi
Dew Point: 37°   Wind: 0mph
Humidity: 79%   Direction: NA
Pressure: 30.33"   Gusts: NA
Location:  32.5°N, 106.93°W
Report Text: KLRU 271415Z AUTO 00000KT 10SM BKN090 06/03 A3033 RMK AO2 T00590025
Loading
Personal Weather Stations






























Interactive Weather Map New forecast layout! Learn more

10-Day Weather Forecast

Advertisements
Track Severe Weather on mobile